Saratoga Center, Illinois
Current Conditions -  °F | °C
As of 4:55 PM on Friday 28 Nov 2014 (Local Time) from KC75 Reporting Station
Clear Clear  
Wind Chill: 28°   Ceiling: Unl
Heat Index: 34°   Visibility: 10mi
Dew Point: 29°   Wind: 7mph
Humidity: 82%   Direction: 170°S
Pressure: 29.95"   Gusts: NA
Location:  41.1083°N, 89.4425°W
Report Text: KC75 282255Z AUTO 17006KT 10SM CLR 01/M01 A2995 RMK AO2 T00131015
Loading
Personal Weather Stations






























Interactive Weather Map New forecast layout! Learn more

10-Day Weather Forecast

Advertisements
Track Severe Weather on mobile